sensor_id;sensor_type;location;lat;lon;timestamp;pressure;altitude;pressure_sealevel;temperature;humidity
44457;BME280;30159;49.316;8.558;2023-05-16T00:01:21;100141.13;;;13.89;100.00
44457;BME280;30159;49.316;8.558;2023-05-16T00:03:49;100137.75;;;13.83;100.00
44457;BME280;30159;49.316;8.558;2023-05-16T00:06:16;100130.75;;;13.82;100.00
44457;BME280;30159;49.316;8.558;2023-05-16T00:08:43;100139.78;;;13.78;100.00
44457;BME280;30159;49.316;8.558;2023-05-16T00:11:10;100137.09;;;13.78;100.00
44457;BME280;30159;49.316;8.558;2023-05-16T00:13:36;100133.56;;;13.77;100.00
44457;BME280;30159;49.316;8.558;2023-05-16T00:16:07;100135.47;;;13.77;100.00
44457;BME280;30159;49.316;8.558;2023-05-16T00:18:34;100092.81;;;13.46;100.00
44457;BME280;30159;49.316;8.558;2023-05-16T00:21:01;100100.41;;;13.58;100.00
44457;BME280;30159;49.316;8.558;2023-05-16T00:23:29;100130.75;;;13.82;100.00
44457;BME280;30159;49.316;8.558;2023-05-16T00:25:56;100130.75;;;13.82;100.00
44457;BME280;30159;49.316;8.558;2023-05-16T00:28:23;100126.25;;;13.78;100.00
44457;BME280;30159;49.316;8.558;2023-05-16T00:30:49;100126.25;;;13.78;100.00
44457;BME280;30159;49.316;8.558;2023-05-16T00:33:16;100124.91;;;13.75;100.00
44457;BME280;30159;49.316;8.558;2023-05-16T00:35:43;100119.50;;;13.75;100.00
44457;BME280;30159;49.316;8.558;2023-05-16T00:38:10;100116.75;;;13.66;100.00
44457;BME280;30159;49.316;8.558;2023-05-16T00:40:36;100126.97;;;13.69;100.00
44457;BME280;30159;49.316;8.558;2023-05-16T00:43:04;100123.25;;;13.65;100.00
44457;BME280;30159;49.316;8.558;2023-05-16T00:45:31;100127.38;;;13.63;100.00
44457;BME280;30159;49.316;8.558;2023-05-16T00:47:57;100125.00;;;13.61;100.00
44457;BME280;30159;49.316;8.558;2023-05-16T00:50:24;100119.06;;;13.59;100.00
44457;BME280;30159;49.316;8.558;2023-05-16T00:52:51;100124.00;;;13.57;100.00
44457;BME280;30159;49.316;8.558;2023-05-16T00:55:17;100123.50;;;13.55;100.00
44457;BME280;30159;49.316;8.558;2023-05-16T00:57:44;100121.59;;;13.56;100.00
44457;BME280;30159;49.316;8.558;2023-05-16T01:00:12;99994.78;;;12.71;100.00
44457;BME280;30159;49.316;8.558;2023-05-16T01:02:40;100116.97;;;13.56;100.00
44457;BME280;30159;49.316;8.558;2023-05-16T01:05:07;100124.00;;;13.57;100.00
44457;BME280;30159;49.316;8.558;2023-05-16T01:07:34;100127.22;;;13.59;100.00
44457;BME280;30159;49.316;8.558;2023-05-16T01:10:02;100122.38;;;13.56;100.00
44457;BME280;30159;49.316;8.558;2023-05-16T01:12:36;100133.13;;;13.61;100.00
44457;BME280;30159;49.316;8.558;2023-05-16T01:15:07;100082.41;;;13.25;100.00
44457;BME280;30159;49.316;8.558;2023-05-16T01:17:44;99982.97;;;12.67;100.00
44457;BME280;30159;49.316;8.558;2023-05-16T01:20:24;100120.00;;;13.55;100.00
44457;BME280;30159;49.316;8.558;2023-05-16T01:23:04;100127.31;;;13.54;100.00
44457;BME280;30159;49.316;8.558;2023-05-16T01:25:42;100127.81;;;13.56;100.00
44457;BME280;30159;49.316;8.558;2023-05-16T01:28:15;100100.75;;;13.42;100.00
44457;BME280;30159;49.316;8.558;2023-05-16T01:30:41;100121.28;;;13.57;100.00
44457;BME280;30159;49.316;8.558;2023-05-16T01:33:08;100130.50;;;13.56;100.00
44457;BME280;30159;49.316;8.558;2023-05-16T01:35:39;100133.41;;;13.60;100.00
44457;BME280;30159;49.316;8.558;2023-05-16T01:38:14;100119.06;;;13.59;100.00
44457;BME280;30159;49.316;8.558;2023-05-16T01:40:47;100132.00;;;13.62;100.00
44457;BME280;30159;49.316;8.558;2023-05-16T01:43:24;100133.59;;;13.63;100.00
44457;BME280;30159;49.316;8.558;2023-05-16T01:46:01;100125.47;;;13.63;100.00
44457;BME280;30159;49.316;8.558;2023-05-16T01:48:32;100128.19;;;13.63;100.00
44457;BME280;30159;49.316;8.558;2023-05-16T01:51:01;100128.09;;;13.68;100.00
44457;BME280;30159;49.316;8.558;2023-05-16T01:53:33;100137.63;;;13.66;100.00
44457;BME280;30159;49.316;8.558;2023-05-16T01:56:03;100131.09;;;13.67;100.00
44457;BME280;30159;49.316;8.558;2023-05-16T01:58:32;100089.34;;;13.32;100.00
44457;BME280;30159;49.316;8.558;2023-05-16T02:00:59;100138.94;;;13.68;100.00
44457;BME280;30159;49.316;8.558;2023-05-16T02:03:26;100141.63;;;13.68;100.00
44457;BME280;30159;49.316;8.558;2023-05-16T02:05:53;100144.81;;;13.70;100.00
44457;BME280;30159;49.316;8.558;2023-05-16T02:08:22;100136.09;;;13.74;100.00
44457;BME280;30159;49.316;8.558;2023-05-16T02:10:49;100094.63;;;13.51;100.00
44457;BME280;30159;49.316;8.558;2023-05-16T02:13:16;100143.09;;;13.75;100.00
44457;BME280;30159;49.316;8.558;2023-05-16T02:15:45;100142.59;;;13.73;100.00
44457;BME280;30159;49.316;8.558;2023-05-16T02:18:11;100133.81;;;13.67;100.00
44457;BME280;30159;49.316;8.558;2023-05-16T02:20:38;100138.00;;;13.73;100.00
44457;BME280;30159;49.316;8.558;2023-05-16T02:23:05;100139.59;;;13.74;100.00
44457;BME280;30159;49.316;8.558;2023-05-16T02:25:31;100136.44;;;13.58;100.00
44457;BME280;30159;49.316;8.558;2023-05-16T02:27:58;100149.69;;;13.60;100.00
44457;BME280;30159;49.316;8.558;2023-05-16T02:30:24;100148.06;;;13.59;100.00
44457;BME280;30159;49.316;8.558;2023-05-16T02:32:52;100145.19;;;13.55;100.00
44457;BME280;30159;49.316;8.558;2023-05-16T02:35:19;100141.75;;;13.49;100.00
44457;BME280;30159;49.316;8.558;2023-05-16T02:37:45;100139.16;;;13.44;100.00
44457;BME280;30159;49.316;8.558;2023-05-16T02:40:12;100146.22;;;13.45;100.00
44457;BME280;30159;49.316;8.558;2023-05-16T02:42:39;100147.72;;;13.38;100.00
44457;BME280;30159;49.316;8.558;2023-05-16T02:45:06;100109.34;;;13.08;100.00
44457;BME280;30159;49.316;8.558;2023-05-16T02:47:33;100149.94;;;13.36;100.00
44457;BME280;30159;49.316;8.558;2023-05-16T02:50:01;99757.56;;;10.88;100.00
44457;BME280;30159;49.316;8.558;2023-05-16T02:52:28;100155.97;;;13.33;100.00
44457;BME280;30159;49.316;8.558;2023-05-16T02:54:54;100148.94;;;13.32;100.00
44457;BME280;30159;49.316;8.558;2023-05-16T02:57:21;100145.50;;;13.26;100.00
44457;BME280;30159;49.316;8.558;2023-05-16T02:59:48;100153.88;;;13.30;100.00
44457;BME280;30159;49.316;8.558;2023-05-16T03:02:14;100159.38;;;13.24;100.00
44457;BME280;30159;49.316;8.558;2023-05-16T03:04:41;100164.28;;;13.22;100.00
44457;BME280;30159;49.316;8.558;2023-05-16T03:07:09;100154.34;;;13.18;100.00
44457;BME280;30159;49.316;8.558;2023-05-16T03:09:35;100168.00;;;13.13;100.00
44457;BME280;30159;49.316;8.558;2023-05-16T03:12:02;100156.16;;;13.08;100.00
44457;BME280;30159;49.316;8.558;2023-05-16T03:14:29;100171.00;;;13.11;100.00
44457;BME280;30159;49.316;8.558;2023-05-16T03:16:55;100167.59;;;13.05;100.00
44457;BME280;30159;49.316;8.558;2023-05-16T03:19:22;100168.19;;;13.02;100.00
44457;BME280;30159;49.316;8.558;2023-05-16T03:21:48;100166.88;;;13.00;100.00
44457;BME280;30159;49.316;8.558;2023-05-16T03:24:16;100162.78;;;13.02;100.00
44457;BME280;30159;49.316;8.558;2023-05-16T03:26:43;100164.91;;;12.92;100.00
44457;BME280;30159;49.316;8.558;2023-05-16T03:29:09;100156.53;;;12.74;100.00
44457;BME280;30159;49.316;8.558;2023-05-16T03:31:36;100129.88;;;12.54;100.00
44457;BME280;30159;49.316;8.558;2023-05-16T03:34:05;100113.94;;;12.38;100.00
44457;BME280;30159;49.316;8.558;2023-05-16T03:36:32;100172.00;;;12.74;100.00
44457;BME280;30159;49.316;8.558;2023-05-16T03:38:58;100174.47;;;12.70;100.00
44457;BME280;30159;49.316;8.558;2023-05-16T03:41:26;100184.81;;;12.68;100.00
44457;BME280;30159;49.316;8.558;2023-05-16T03:43:53;100200.56;;;12.66;100.00
44457;BME280;30159;49.316;8.558;2023-05-16T03:46:19;100189.22;;;12.64;100.00
44457;BME280;30159;49.316;8.558;2023-05-16T03:48:46;100189.22;;;12.64;100.00
44457;BME280;30159;49.316;8.558;2023-05-16T03:51:12;100202.25;;;12.62;100.00
44457;BME280;30159;49.316;8.558;2023-05-16T03:53:39;100184.56;;;12.51;100.00
44457;BME280;30159;49.316;8.558;2023-05-16T03:56:05;100197.31;;;12.50;100.00
44457;BME280;30159;49.316;8.558;2023-05-16T03:58:33;100197.59;;;12.49;100.00
44457;BME280;30159;49.316;8.558;2023-05-16T04:01:00;100201.41;;;12.48;100.00
44457;BME280;30159;49.316;8.558;2023-05-16T04:03:29;100147.41;;;12.10;100.00
44457;BME280;30159;49.316;8.558;2023-05-16T04:05:58;100207.25;;;12.55;100.00
44457;BME280;30159;49.316;8.558;2023-05-16T04:08:24;100210.03;;;12.50;100.00
44457;BME280;30159;49.316;8.558;2023-05-16T04:10:51;100212.81;;;12.44;100.00
44457;BME280;30159;49.316;8.558;2023-05-16T04:13:18;100216.09;;;12.41;100.00
44457;BME280;30159;49.316;8.558;2023-05-16T04:15:46;100218.81;;;12.41;100.00
44457;BME280;30159;49.316;8.558;2023-05-16T04:18:12;100180.47;;;12.20;100.00
44457;BME280;30159;49.316;8.558;2023-05-16T04:20:41;100195.22;;;12.28;100.00
44457;BME280;30159;49.316;8.558;2023-05-16T04:23:08;100224.22;;;12.41;100.00
44457;BME280;30159;49.316;8.558;2023-05-16T04:25:36;100215.81;;;12.43;100.00
44457;BME280;30159;49.316;8.558;2023-05-16T04:28:03;100214.19;;;12.42;100.00
44457;BME280;30159;49.316;8.558;2023-05-16T04:30:30;100230.38;;;12.47;100.00
44457;BME280;30159;49.316;8.558;2023-05-16T04:32:57;100226.34;;;12.44;100.00
44457;BME280;30159;49.316;8.558;2023-05-16T04:35:24;100219.84;;;12.46;100.00
44457;BME280;30159;49.316;8.558;2023-05-16T04:37:52;100232.06;;;12.43;100.00
44457;BME280;30159;49.316;8.558;2023-05-16T04:40:18;100240.97;;;12.43;100.00
44457;BME280;30159;49.316;8.558;2023-05-16T04:42:47;100236.06;;;12.46;100.00
44457;BME280;30159;49.316;8.558;2023-05-16T04:45:13;100249.00;;;12.49;100.00
44457;BME280;30159;49.316;8.558;2023-05-16T04:47:40;100246.28;;;12.49;100.00
44457;BME280;30159;49.316;8.558;2023-05-16T04:50:10;100236.88;;;12.46;100.00
44457;BME280;30159;49.316;8.558;2023-05-16T04:52:40;100252.53;;;12.63;100.00
44457;BME280;30159;49.316;8.558;2023-05-16T04:55:17;100247.34;;;12.67;100.00
44457;BME280;30159;49.316;8.558;2023-05-16T04:57:51;100248.25;;;12.62;100.00
44457;BME280;30159;49.316;8.558;2023-05-16T05:00:18;100245.53;;;12.62;100.00
44457;BME280;30159;49.316;8.558;2023-05-16T05:02:47;100254.56;;;12.71;100.00
44457;BME280;30159;49.316;8.558;2023-05-16T05:05:18;100244.59;;;12.85;100.00
44457;BME280;30159;49.316;8.558;2023-05-16T05:07:48;100255.63;;;12.89;100.00
44457;BME280;30159;49.316;8.558;2023-05-16T05:10:17;100253.75;;;13.03;100.00
44457;BME280;30159;49.316;8.558;2023-05-16T05:12:45;100261.88;;;13.03;100.00
44457;BME280;30159;49.316;8.558;2023-05-16T05:15:11;100257.00;;;12.86;100.00
44457;BME280;30159;49.316;8.558;2023-05-16T05:17:38;100263.03;;;12.83;100.00
44457;BME280;30159;49.316;8.558;2023-05-16T05:20:09;100257.22;;;12.90;100.00
44457;BME280;30159;49.316;8.558;2023-05-16T05:22:39;100255.69;;;12.84;100.00
44457;BME280;30159;49.316;8.558;2023-05-16T05:25:06;100260.41;;;12.78;100.00
44457;BME280;30159;49.316;8.558;2023-05-16T05:27:33;100250.22;;;12.56;100.00
44457;BME280;30159;49.316;8.558;2023-05-16T05:29:59;100266.91;;;12.77;100.00
44457;BME280;30159;49.316;8.558;2023-05-16T05:32:26;100259.44;;;13.02;100.00
44457;BME280;30159;49.316;8.558;2023-05-16T05:34:52;100265.69;;;13.16;100.00
44457;BME280;30159;49.316;8.558;2023-05-16T05:37:19;100266.44;;;13.03;100.00
44457;BME280;30159;49.316;8.558;2023-05-16T05:39:47;100265.09;;;13.05;100.00
44457;BME280;30159;49.316;8.558;2023-05-16T05:42:14;100264.47;;;13.08;100.00
44457;BME280;30159;49.316;8.558;2023-05-16T05:44:40;100276.72;;;13.20;100.00
44457;BME280;30159;49.316;8.558;2023-05-16T05:47:07;100282.75;;;13.31;100.00
44457;BME280;30159;49.316;8.558;2023-05-16T05:49:34;100272.03;;;13.39;100.00
44457;BME280;30159;49.316;8.558;2023-05-16T05:52:01;100281.16;;;13.30;100.00
44457;BME280;30159;49.316;8.558;2023-05-16T05:54:27;100264.66;;;13.12;100.00
44457;BME280;30159;49.316;8.558;2023-05-16T05:56:55;100282.94;;;13.20;100.00
44457;BME280;30159;49.316;8.558;2023-05-16T05:59:22;100285.53;;;13.12;100.00
44457;BME280;30159;49.316;8.558;2023-05-16T06:01:49;100289.94;;;13.07;100.00
44457;BME280;30159;49.316;8.558;2023-05-16T06:04:16;100295.34;;;13.07;100.00
44457;BME280;30159;49.316;8.558;2023-05-16T06:06:43;100295.59;;;13.25;100.00
44457;BME280;30159;49.316;8.558;2023-05-16T06:09:10;100288.19;;;13.31;100.00
44457;BME280;30159;49.316;8.558;2023-05-16T06:11:37;100221.44;;;13.07;100.00
44457;BME280;30159;49.316;8.558;2023-05-16T06:14:05;100291.63;;;13.50;100.00
44457;BME280;30159;49.316;8.558;2023-05-16T06:16:32;100289.50;;;13.61;100.00
44457;BME280;30159;49.316;8.558;2023-05-16T06:18:59;100296.03;;;13.46;100.00
44457;BME280;30159;49.316;8.558;2023-05-16T06:21:25;100301.44;;;13.46;100.00
44457;BME280;30159;49.316;8.558;2023-05-16T06:23:52;100296.03;;;13.60;100.00
44457;BME280;30159;49.316;8.558;2023-05-16T06:26:18;100306.25;;;13.49;100.00
44457;BME280;30159;49.316;8.558;2023-05-16T06:28:46;100283.16;;;13.38;100.00
44457;BME280;30159;49.316;8.558;2023-05-16T06:31:14;100303.66;;;13.44;100.00
44457;BME280;30159;49.316;8.558;2023-05-16T06:33:41;100309.06;;;13.44;100.00
44457;BME280;30159;49.316;8.558;2023-05-16T06:36:07;100270.91;;;13.26;100.00
44457;BME280;30159;49.316;8.558;2023-05-16T06:38:34;100311.09;;;13.66;100.00
44457;BME280;30159;49.316;8.558;2023-05-16T06:41:01;100267.63;;;13.43;100.00
44457;BME280;30159;49.316;8.558;2023-05-16T06:43:27;100310.56;;;13.78;100.00
44457;BME280;30159;49.316;8.558;2023-05-16T06:45:54;100309.66;;;13.82;100.00
44457;BME280;30159;49.316;8.558;2023-05-16T06:48:22;100310.06;;;13.89;100.00
44457;BME280;30159;49.316;8.558;2023-05-16T06:50:49;100316.59;;;13.75;100.00
44457;BME280;30159;49.316;8.558;2023-05-16T06:53:16;100319.41;;;13.69;100.00
44457;BME280;30159;49.316;8.558;2023-05-16T06:55:43;100324.03;;;13.83;100.00
44457;BME280;30159;49.316;8.558;2023-05-16T06:58:10;100323.88;;;14.16;100.00
44457;BME280;30159;49.316;8.558;2023-05-16T07:00:36;100330.63;;;14.41;100.00
44457;BME280;30159;49.316;8.558;2023-05-16T07:03:06;100306.56;;;14.25;100.00
44457;BME280;30159;49.316;8.558;2023-05-16T07:05:34;100326.81;;;14.42;100.00
44457;BME280;30159;49.316;8.558;2023-05-16T07:08:00;100346.56;;;14.20;100.00
44457;BME280;30159;49.316;8.558;2023-05-16T07:10:27;100350.34;;;13.82;100.00
44457;BME280;30159;49.316;8.558;2023-05-16T07:12:54;100345.31;;;13.76;100.00
44457;BME280;30159;49.316;8.558;2023-05-16T07:15:20;100339.06;;;13.75;100.00
44457;BME280;30159;49.316;8.558;2023-05-16T07:17:47;100351.63;;;13.71;100.00
44457;BME280;30159;49.316;8.558;2023-05-16T07:20:15;100350.81;;;13.70;100.00
44457;BME280;30159;49.316;8.558;2023-05-16T07:22:45;100348.41;;;13.83;100.00
44457;BME280;30159;49.316;8.558;2023-05-16T07:25:12;100350.72;;;13.89;100.00
44457;BME280;30159;49.316;8.558;2023-05-16T07:27:40;100344.06;;;13.96;100.00
44457;BME280;30159;49.316;8.558;2023-05-16T07:30:10;100347.09;;;14.08;100.00
44457;BME280;30159;49.316;8.558;2023-05-16T07:32:37;100344.84;;;14.10;100.00
44457;BME280;30159;49.316;8.558;2023-05-16T07:35:04;100343.13;;;14.28;100.00
44457;BME280;30159;49.316;8.558;2023-05-16T07:37:31;100346.97;;;14.27;100.00
44457;BME280;30159;49.316;8.558;2023-05-16T07:39:58;100343.00;;;14.33;100.00
44457;BME280;30159;49.316;8.558;2023-05-16T07:42:25;100346.53;;;14.33;100.00
44457;BME280;30159;49.316;8.558;2023-05-16T07:44:51;100354.97;;;14.32;100.00
44457;BME280;30159;49.316;8.558;2023-05-16T07:47:18;100357.28;;;14.39;100.00
44457;BME280;30159;49.316;8.558;2023-05-16T07:49:45;100361.28;;;14.41;100.00
44457;BME280;30159;49.316;8.558;2023-05-16T07:52:11;100364.00;;;14.41;99.71
44457;BME280;30159;49.316;8.558;2023-05-16T07:54:38;100364.81;;;14.28;100.00
44457;BME280;30159;49.316;8.558;2023-05-16T07:57:06;100354.63;;;14.11;99.78
44457;BME280;30159;49.316;8.558;2023-05-16T07:59:32;100365.84;;;14.18;99.84
44457;BME280;30159;49.316;8.558;2023-05-16T08:01:59;100366.75;;;14.13;100.00
44457;BME280;30159;49.316;8.558;2023-05-16T08:04:25;100363.84;;;14.10;99.50
44457;BME280;30159;49.316;8.558;2023-05-16T08:06:52;100368.66;;;14.27;100.00
44457;BME280;30159;49.316;8.558;2023-05-16T08:09:19;100360.03;;;14.25;100.00
44457;BME280;30159;49.316;8.558;2023-05-16T08:11:45;100362.59;;;14.44;99.15
44457;BME280;30159;49.316;8.558;2023-05-16T08:14:13;100366.59;;;14.46;98.72
44457;BME280;30159;49.316;8.558;2023-05-16T08:16:40;100370.13;;;14.33;99.62
44457;BME280;30159;49.316;8.558;2023-05-16T08:19:06;100374.91;;;14.13;100.00
44457;BME280;30159;49.316;8.558;2023-05-16T08:21:33;100380.22;;;13.77;100.00
44457;BME280;30159;49.316;8.558;2023-05-16T08:23:59;100382.66;;;13.65;100.00
44457;BME280;30159;49.316;8.558;2023-05-16T08:26:26;100389.50;;;13.76;100.00
44457;BME280;30159;49.316;8.558;2023-05-16T08:28:52;100386.16;;;13.79;100.00
44457;BME280;30159;49.316;8.558;2023-05-16T08:31:20;100395.81;;;13.72;100.00
44457;BME280;30159;49.316;8.558;2023-05-16T08:33:47;100377.63;;;13.58;99.18
44457;BME280;30159;49.316;8.558;2023-05-16T08:36:13;100392.69;;;13.64;99.24
44457;BME280;30159;49.316;8.558;2023-05-16T08:38:40;100355.69;;;13.27;97.34
44457;BME280;30159;49.316;8.558;2023-05-16T08:41:07;100348.97;;;13.24;96.60
44457;BME280;30159;49.316;8.558;2023-05-16T08:43:33;100402.25;;;13.76;95.44
44457;BME280;30159;49.316;8.558;2023-05-16T08:46:00;100402.03;;;13.86;96.47
44457;BME280;30159;49.316;8.558;2023-05-16T08:48:29;100393.88;;;14.27;94.70
44457;BME280;30159;49.316;8.558;2023-05-16T08:50:57;100406.91;;;14.39;92.28
44457;BME280;30159;49.316;8.558;2023-05-16T08:53:31;100326.13;;;13.58;90.26
44457;BME280;30159;49.316;8.558;2023-05-16T08:55:59;100406.63;;;14.41;90.91
44457;BME280;30159;49.316;8.558;2023-05-16T08:58:26;100401.06;;;14.60;90.90
44457;BME280;30159;49.316;8.558;2023-05-16T09:00:55;100401.09;;;15.05;89.05
44457;BME280;30159;49.316;8.558;2023-05-16T09:03:21;100401.84;;;14.96;86.96
44457;BME280;30159;49.316;8.558;2023-05-16T09:05:50;100393.25;;;14.81;86.54
44457;BME280;30159;49.316;8.558;2023-05-16T09:08:17;100391.72;;;15.11;86.56
44457;BME280;30159;49.316;8.558;2023-05-16T09:10:44;100401.34;;;15.17;84.93
44457;BME280;30159;49.316;8.558;2023-05-16T09:13:11;100386.84;;;15.53;82.92
44457;BME280;30159;49.316;8.558;2023-05-16T09:15:37;100393.03;;;15.45;82.75
44457;BME280;30159;49.316;8.558;2023-05-16T09:18:04;100394.38;;;15.56;82.32
44457;BME280;30159;49.316;8.558;2023-05-16T09:20:31;100402.63;;;15.73;81.63
44457;BME280;30159;49.316;8.558;2023-05-16T09:22:59;100373.84;;;15.41;81.00
44457;BME280;30159;49.316;8.558;2023-05-16T09:25:27;100385.97;;;14.90;83.27
44457;BME280;30159;49.316;8.558;2023-05-16T09:27:54;100268.63;;;14.11;85.03
44457;BME280;30159;49.316;8.558;2023-05-16T09:30:22;100353.09;;;14.69;84.59
44457;BME280;30159;49.316;8.558;2023-05-16T09:32:50;100400.59;;;15.25;83.50
44457;BME280;30159;49.316;8.558;2023-05-16T09:35:19;100356.66;;;14.78;83.63
44457;BME280;30159;49.316;8.558;2023-05-16T09:37:46;100407.38;;;15.14;83.75
44457;BME280;30159;49.316;8.558;2023-05-16T09:40:14;100405.25;;;15.33;83.57
44457;BME280;30159;49.316;8.558;2023-05-16T09:42:42;100419.31;;;15.58;81.48
44457;BME280;30159;49.316;8.558;2023-05-16T09:45:11;100408.03;;;15.42;82.69
44457;BME280;30159;49.316;8.558;2023-05-16T09:47:38;100279.03;;;14.77;82.68
44457;BME280;30159;49.316;8.558;2023-05-16T09:50:12;100436.91;;;15.29;84.41
44457;BME280;30159;49.316;8.558;2023-05-16T09:52:39;100436.03;;;14.98;84.17
44457;BME280;30159;49.316;8.558;2023-05-16T09:55:07;100439.88;;;15.42;83.67
44457;BME280;30159;49.316;8.558;2023-05-16T09:57:37;100438.50;;;15.30;83.52
44457;BME280;30159;49.316;8.558;2023-05-16T10:00:06;100420.09;;;15.05;85.39
44457;BME280;30159;49.316;8.558;2023-05-16T10:02:35;100438.88;;;14.92;87.55
44457;BME280;30159;49.316;8.558;2023-05-16T10:05:03;100442.56;;;14.74;87.72
44457;BME280;30159;49.316;8.558;2023-05-16T10:07:30;100453.16;;;14.34;88.28
44457;BME280;30159;49.316;8.558;2023-05-16T10:09:59;100440.09;;;14.08;91.11
44457;BME280;30159;49.316;8.558;2023-05-16T10:12:28;100378.63;;;13.48;91.54
44457;BME280;30159;49.316;8.558;2023-05-16T10:14:58;100451.91;;;13.57;94.94
44457;BME280;30159;49.316;8.558;2023-05-16T10:17:27;100452.66;;;13.44;95.03
44457;BME280;30159;49.316;8.558;2023-05-16T10:19:57;100475.69;;;13.27;95.93
44457;BME280;30159;49.316;8.558;2023-05-16T10:22:26;100460.66;;;13.16;96.43
44457;BME280;30159;49.316;8.558;2023-05-16T10:24:59;100460.56;;;13.21;96.14
44457;BME280;30159;49.316;8.558;2023-05-16T10:27:29;100460.09;;;13.19;94.38
44457;BME280;30159;49.316;8.558;2023-05-16T10:29:58;100467.75;;;13.12;94.82
44457;BME280;30159;49.316;8.558;2023-05-16T10:32:25;100468.59;;;12.94;95.73
44457;BME280;30159;49.316;8.558;2023-05-16T10:34:53;100463.47;;;13.11;97.04
44457;BME280;30159;49.316;8.558;2023-05-16T10:37:20;100461.88;;;13.24;95.25
44457;BME280;30159;49.316;8.558;2023-05-16T10:39:47;100415.69;;;13.01;92.76
44457;BME280;30159;49.316;8.558;2023-05-16T10:42:14;100460.63;;;13.54;92.66
44457;BME280;30159;49.316;8.558;2023-05-16T10:44:42;100464.88;;;13.74;90.83
44457;BME280;30159;49.316;8.558;2023-05-16T10:47:10;100455.75;;;13.98;89.63
44457;BME280;30159;49.316;8.558;2023-05-16T10:49:40;100456.38;;;14.08;88.22
44457;BME280;30159;49.316;8.558;2023-05-16T10:52:08;100461.59;;;14.60;87.19
44457;BME280;30159;49.316;8.558;2023-05-16T10:54:36;100462.09;;;14.48;86.52
44457;BME280;30159;49.316;8.558;2023-05-16T10:57:04;100469.13;;;14.63;86.79
44457;BME280;30159;49.316;8.558;2023-05-16T10:59:39;100470.41;;;14.38;85.97
44457;BME280;30159;49.316;8.558;2023-05-16T11:02:23;100492.34;;;14.42;88.96
44457;BME280;30159;49.316;8.558;2023-05-16T11:04:50;100489.34;;;14.16;86.54
44457;BME280;30159;49.316;8.558;2023-05-16T11:07:18;100423.69;;;13.58;88.38
44457;BME280;30159;49.316;8.558;2023-05-16T11:09:45;100479.97;;;13.80;88.83
44457;BME280;30159;49.316;8.558;2023-05-16T11:12:19;100501.78;;;13.56;90.90
44457;BME280;30159;49.316;8.558;2023-05-16T11:14:50;100489.88;;;13.71;90.30
44457;BME280;30159;49.316;8.558;2023-05-16T11:17:21;100495.13;;;13.95;89.25
44457;BME280;30159;49.316;8.558;2023-05-16T11:19:50;100496.72;;;13.96;89.38
44457;BME280;30159;49.316;8.558;2023-05-16T11:22:24;100492.66;;;13.99;86.42
44457;BME280;30159;49.316;8.558;2023-05-16T11:24:53;100498.09;;;14.12;88.35
44457;BME280;30159;49.316;8.558;2023-05-16T11:27:22;100505.41;;;14.26;85.38
44457;BME280;30159;49.316;8.558;2023-05-16T11:29:50;100489.03;;;14.31;84.69
44457;BME280;30159;49.316;8.558;2023-05-16T11:32:19;100502.50;;;14.36;83.25
44457;BME280;30159;49.316;8.558;2023-05-16T11:34:48;100506.22;;;14.54;82.50
44457;BME280;30159;49.316;8.558;2023-05-16T11:37:15;100500.88;;;14.35;82.92
44457;BME280;30159;49.316;8.558;2023-05-16T11:39:42;100506.91;;;14.32;84.02
44457;BME280;30159;49.316;8.558;2023-05-16T11:42:09;100500.69;;;14.18;83.62
44457;BME280;30159;49.316;8.558;2023-05-16T11:44:37;100505.78;;;14.05;85.13
44457;BME280;30159;49.316;8.558;2023-05-16T11:47:04;100504.50;;;14.17;84.69
44457;BME280;30159;49.316;8.558;2023-05-16T11:49:31;100473.94;;;13.97;83.20
44457;BME280;30159;49.316;8.558;2023-05-16T11:52:01;100511.94;;;14.11;83.48
44457;BME280;30159;49.316;8.558;2023-05-16T11:54:28;100509.41;;;13.87;84.05
44457;BME280;30159;49.316;8.558;2023-05-16T11:56:54;100504.19;;;14.04;85.84
44457;BME280;30159;49.316;8.558;2023-05-16T11:59:21;100508.09;;;14.12;84.13
44457;BME280;30159;49.316;8.558;2023-05-16T12:01:48;100508.50;;;14.05;85.17
44457;BME280;30159;49.316;8.558;2023-05-16T12:04:16;100513.94;;;14.33;84.00
44457;BME280;30159;49.316;8.558;2023-05-16T12:07:00;100518.38;;;14.57;84.22
44457;BME280;30159;49.316;8.558;2023-05-16T12:09:28;100513.84;;;14.38;83.72
44457;BME280;30159;49.316;8.558;2023-05-16T12:11:54;100518.16;;;14.11;85.97
44457;BME280;30159;49.316;8.558;2023-05-16T12:14:21;100517.47;;;14.06;84.71
44457;BME280;30159;49.316;8.558;2023-05-16T12:16:51;100524.28;;;14.03;85.58
44457;BME280;30159;49.316;8.558;2023-05-16T12:19:18;100522.81;;;14.39;84.70
44457;BME280;30159;49.316;8.558;2023-05-16T12:21:45;100519.59;;;14.50;83.29
44457;BME280;30159;49.316;8.558;2023-05-16T12:24:12;100531.63;;;14.44;83.03
44457;BME280;30159;49.316;8.558;2023-05-16T12:26:40;100524.91;;;14.69;82.15
44457;BME280;30159;49.316;8.558;2023-05-16T12:29:07;100534.22;;;15.05;80.50
44457;BME280;30159;49.316;8.558;2023-05-16T12:31:36;100478.22;;;15.40;78.09
44457;BME280;30159;49.316;8.558;2023-05-16T12:34:03;100522.63;;;15.58;78.07
44457;BME280;30159;49.316;8.558;2023-05-16T12:36:31;100522.66;;;15.80;76.63
44457;BME280;30159;49.316;8.558;2023-05-16T12:39:13;100511.81;;;15.22;76.02
44457;BME280;30159;49.316;8.558;2023-05-16T12:41:41;100504.19;;;14.87;76.34
44457;BME280;30159;49.316;8.558;2023-05-16T12:44:12;100540.09;;;14.57;76.68
44457;BME280;30159;49.316;8.558;2023-05-16T12:46:42;100490.63;;;14.32;77.68